sensor_id;sensor_type;location;lat;lon;timestamp;P1;durP1;ratioP1;P2;durP2;ratioP2
75446;SDS011;64024;55.820;37.574;2023-07-13T00:01:47;6.10;;;5.50;;
75446;SDS011;64024;55.820;37.574;2023-07-13T00:04:16;5.90;;;5.30;;
75446;SDS011;64024;55.820;37.574;2023-07-13T00:06:43;8.40;;;4.90;;
75446;SDS011;64024;55.820;37.574;2023-07-13T00:09:11;5.30;;;4.00;;
75446;SDS011;64024;55.820;37.574;2023-07-13T00:11:39;5.22;;;4.72;;
75446;SDS011;64024;55.820;37.574;2023-07-13T00:14:05;4.97;;;4.47;;
75446;SDS011;64024;55.820;37.574;2023-07-13T00:16:33;4.55;;;3.92;;
75446;SDS011;64024;55.820;37.574;2023-07-13T00:19:00;4.88;;;4.30;;
75446;SDS011;64024;55.820;37.574;2023-07-13T00:21:26;4.75;;;4.22;;
75446;SDS011;64024;55.820;37.574;2023-07-13T00:23:53;4.88;;;4.32;;
75446;SDS011;64024;55.820;37.574;2023-07-13T00:26:19;5.20;;;4.18;;
75446;SDS011;64024;55.820;37.574;2023-07-13T00:28:45;5.50;;;4.97;;
75446;SDS011;64024;55.820;37.574;2023-07-13T00:31:12;5.32;;;4.47;;
75446;SDS011;64024;55.820;37.574;2023-07-13T00:33:40;4.57;;;3.60;;
75446;SDS011;64024;55.820;37.574;2023-07-13T00:36:07;5.53;;;3.72;;
75446;SDS011;64024;55.820;37.574;2023-07-13T00:40:59;3.53;;;3.22;;
75446;SDS011;64024;55.820;37.574;2023-07-13T00:43:27;5.43;;;4.32;;
75446;SDS011;64024;55.820;37.574;2023-07-13T00:46:11;3.53;;;3.00;;
75446;SDS011;64024;55.820;37.574;2023-07-13T00:48:43;4.93;;;4.50;;
75446;SDS011;64024;55.820;37.574;2023-07-13T00:51:12;3.92;;;3.03;;
75446;SDS011;64024;55.820;37.574;2023-07-13T00:53:41;4.43;;;3.80;;
75446;SDS011;64024;55.820;37.574;2023-07-13T00:56:07;4.22;;;3.83;;
75446;SDS011;64024;55.820;37.574;2023-07-13T00:58:33;4.25;;;3.72;;
75446;SDS011;64024;55.820;37.574;2023-07-13T01:01:00;3.83;;;3.40;;
75446;SDS011;64024;55.820;37.574;2023-07-13T01:03:27;4.75;;;4.05;;
75446;SDS011;64024;55.820;37.574;2023-07-13T01:05:54;4.57;;;4.18;;
75446;SDS011;64024;55.820;37.574;2023-07-13T01:08:21;4.32;;;3.92;;
75446;SDS011;64024;55.820;37.574;2023-07-13T01:10:54;5.18;;;3.78;;
75446;SDS011;64024;55.820;37.574;2023-07-13T01:13:21;6.78;;;4.43;;
75446;SDS011;64024;55.820;37.574;2023-07-13T01:15:49;4.80;;;4.28;;
75446;SDS011;64024;55.820;37.574;2023-07-13T01:18:21;4.68;;;4.20;;
75446;SDS011;64024;55.820;37.574;2023-07-13T01:23:23;5.78;;;4.72;;
75446;SDS011;64024;55.820;37.574;2023-07-13T01:25:50;4.82;;;4.20;;
75446;SDS011;64024;55.820;37.574;2023-07-13T01:30:43;4.78;;;4.18;;
75446;SDS011;64024;55.820;37.574;2023-07-13T01:33:11;5.13;;;4.63;;
75446;SDS011;64024;55.820;37.574;2023-07-13T01:35:42;4.70;;;4.13;;
75446;SDS011;64024;55.820;37.574;2023-07-13T01:38:09;5.70;;;4.38;;
75446;SDS011;64024;55.820;37.574;2023-07-13T01:40:35;5.80;;;4.93;;
75446;SDS011;64024;55.820;37.574;2023-07-13T01:43:02;5.40;;;4.90;;
75446;SDS011;64024;55.820;37.574;2023-07-13T01:45:28;5.63;;;4.97;;
75446;SDS011;64024;55.820;37.574;2023-07-13T01:47:54;4.78;;;4.38;;
75446;SDS011;64024;55.820;37.574;2023-07-13T01:50:21;5.35;;;4.50;;
75446;SDS011;64024;55.820;37.574;2023-07-13T01:52:47;4.47;;;4.07;;
75446;SDS011;64024;55.820;37.574;2023-07-13T01:55:13;6.05;;;4.70;;
75446;SDS011;64024;55.820;37.574;2023-07-13T01:57:39;5.13;;;4.68;;
75446;SDS011;64024;55.820;37.574;2023-07-13T02:00:06;4.95;;;4.35;;
75446;SDS011;64024;55.820;37.574;2023-07-13T02:02:34;4.72;;;4.22;;
75446;SDS011;64024;55.820;37.574;2023-07-13T02:05:00;4.72;;;3.83;;
75446;SDS011;64024;55.820;37.574;2023-07-13T02:07:26;4.53;;;3.63;;
75446;SDS011;64024;55.820;37.574;2023-07-13T02:09:52;4.28;;;3.88;;
75446;SDS011;64024;55.820;37.574;2023-07-13T02:12:19;5.40;;;4.32;;
75446;SDS011;64024;55.820;37.574;2023-07-13T02:14:45;4.93;;;4.35;;
75446;SDS011;64024;55.820;37.574;2023-07-13T02:17:11;4.25;;;3.85;;
75446;SDS011;64024;55.820;37.574;2023-07-13T02:19:37;5.45;;;4.20;;
75446;SDS011;64024;55.820;37.574;2023-07-13T02:22:03;4.95;;;3.95;;
75446;SDS011;64024;55.820;37.574;2023-07-13T02:24:30;5.00;;;4.50;;
75446;SDS011;64024;55.820;37.574;2023-07-13T02:26:55;4.43;;;4.00;;
75446;SDS011;64024;55.820;37.574;2023-07-13T02:29:22;5.07;;;4.57;;
75446;SDS011;64024;55.820;37.574;2023-07-13T02:31:48;5.05;;;4.28;;
75446;SDS011;64024;55.820;37.574;2023-07-13T02:34:14;5.18;;;4.68;;
75446;SDS011;64024;55.820;37.574;2023-07-13T02:36:40;4.97;;;4.47;;
75446;SDS011;64024;55.820;37.574;2023-07-13T02:39:06;5.25;;;4.60;;
75446;SDS011;64024;55.820;37.574;2023-07-13T02:41:38;5.60;;;5.10;;
75446;SDS011;64024;55.820;37.574;2023-07-13T02:44:04;5.35;;;4.85;;
75446;SDS011;64024;55.820;37.574;2023-07-13T02:46:33;4.50;;;4.10;;
75446;SDS011;64024;55.820;37.574;2023-07-13T02:49:01;6.18;;;4.13;;
75446;SDS011;64024;55.820;37.574;2023-07-13T02:51:28;4.53;;;4.13;;
75446;SDS011;64024;55.820;37.574;2023-07-13T02:53:54;4.90;;;4.43;;
75446;SDS011;64024;55.820;37.574;2023-07-13T02:56:23;5.68;;;5.18;;
75446;SDS011;64024;55.820;37.574;2023-07-13T02:58:51;5.78;;;5.25;;
75446;SDS011;64024;55.820;37.574;2023-07-13T03:01:16;6.53;;;5.93;;
75446;SDS011;64024;55.820;37.574;2023-07-13T03:03:44;7.25;;;6.55;;
75446;SDS011;64024;55.820;37.574;2023-07-13T03:06:11;7.45;;;6.53;;
75446;SDS011;64024;55.820;37.574;2023-07-13T03:08:39;6.03;;;5.35;;
75446;SDS011;64024;55.820;37.574;2023-07-13T03:11:08;5.85;;;5.32;;
75446;SDS011;64024;55.820;37.574;2023-07-13T03:13:40;6.22;;;5.25;;
75446;SDS011;64024;55.820;37.574;2023-07-13T03:18:33;5.22;;;4.57;;
75446;SDS011;64024;55.820;37.574;2023-07-13T03:21:00;6.07;;;5.57;;
75446;SDS011;64024;55.820;37.574;2023-07-13T03:23:26;6.15;;;5.00;;
75446;SDS011;64024;55.820;37.574;2023-07-13T03:26:03;6.85;;;5.95;;
75446;SDS011;64024;55.820;37.574;2023-07-13T03:28:31;5.00;;;4.50;;
75446;SDS011;64024;55.820;37.574;2023-07-13T03:31:01;6.03;;;5.43;;
75446;SDS011;64024;55.820;37.574;2023-07-13T03:33:33;6.15;;;5.18;;
75446;SDS011;64024;55.820;37.574;2023-07-13T03:36:00;5.80;;;5.30;;
75446;SDS011;64024;55.820;37.574;2023-07-13T03:38:26;6.35;;;4.97;;
75446;SDS011;64024;55.820;37.574;2023-07-13T03:40:53;6.20;;;5.60;;
75446;SDS011;64024;55.820;37.574;2023-07-13T03:43:18;5.82;;;5.32;;
75446;SDS011;64024;55.820;37.574;2023-07-13T03:45:45;4.97;;;4.47;;
75446;SDS011;64024;55.820;37.574;2023-07-13T03:48:12;5.30;;;4.80;;
75446;SDS011;64024;55.820;37.574;2023-07-13T03:50:38;5.45;;;4.57;;
75446;SDS011;64024;55.820;37.574;2023-07-13T03:53:04;5.93;;;4.60;;
75446;SDS011;64024;55.820;37.574;2023-07-13T03:55:31;4.32;;;3.92;;
75446;SDS011;64024;55.820;37.574;2023-07-13T03:57:59;5.32;;;4.25;;
75446;SDS011;64024;55.820;37.574;2023-07-13T04:00:26;5.22;;;4.47;;
75446;SDS011;64024;55.820;37.574;2023-07-13T04:02:52;6.72;;;4.85;;
75446;SDS011;64024;55.820;37.574;2023-07-13T04:05:19;5.07;;;4.57;;
75446;SDS011;64024;55.820;37.574;2023-07-13T04:07:45;4.82;;;4.38;;
75446;SDS011;64024;55.820;37.574;2023-07-13T04:10:11;5.05;;;4.55;;
75446;SDS011;64024;55.820;37.574;2023-07-13T04:12:37;4.32;;;3.92;;
75446;SDS011;64024;55.820;37.574;2023-07-13T04:15:03;4.85;;;4.38;;
75446;SDS011;64024;55.820;37.574;2023-07-13T04:17:29;4.47;;;4.07;;
75446;SDS011;64024;55.820;37.574;2023-07-13T04:19:56;4.78;;;4.35;;
75446;SDS011;64024;55.820;37.574;2023-07-13T04:22:22;5.00;;;4.05;;
75446;SDS011;64024;55.820;37.574;2023-07-13T04:24:48;5.32;;;4.32;;
75446;SDS011;64024;55.820;37.574;2023-07-13T04:27:14;5.18;;;4.28;;
75446;SDS011;64024;55.820;37.574;2023-07-13T04:29:40;4.68;;;4.28;;
75446;SDS011;64024;55.820;37.574;2023-07-13T04:32:06;4.45;;;4.05;;
75446;SDS011;64024;55.820;37.574;2023-07-13T04:34:33;5.07;;;4.10;;
75446;SDS011;64024;55.820;37.574;2023-07-13T04:37:00;4.47;;;4.07;;
75446;SDS011;64024;55.820;37.574;2023-07-13T04:39:26;5.03;;;4.47;;
75446;SDS011;64024;55.820;37.574;2023-07-13T04:41:52;4.93;;;4.28;;
75446;SDS011;64024;55.820;37.574;2023-07-13T04:44:18;6.45;;;4.72;;
75446;SDS011;64024;55.820;37.574;2023-07-13T04:46:43;5.22;;;4.72;;
75446;SDS011;64024;55.820;37.574;2023-07-13T04:49:09;5.47;;;4.68;;
75446;SDS011;64024;55.820;37.574;2023-07-13T04:51:35;5.38;;;4.88;;
75446;SDS011;64024;55.820;37.574;2023-07-13T04:54:02;5.43;;;4.93;;
75446;SDS011;64024;55.820;37.574;2023-07-13T04:56:30;5.95;;;5.43;;
75446;SDS011;64024;55.820;37.574;2023-07-13T04:58:56;6.50;;;4.90;;
75446;SDS011;64024;55.820;37.574;2023-07-13T05:01:23;4.88;;;4.38;;
75446;SDS011;64024;55.820;37.574;2023-07-13T05:03:50;5.35;;;4.85;;
75446;SDS011;64024;55.820;37.574;2023-07-13T05:06:16;6.63;;;5.32;;
75446;SDS011;64024;55.820;37.574;2023-07-13T05:08:42;5.60;;;4.97;;
75446;SDS011;64024;55.820;37.574;2023-07-13T05:11:08;5.32;;;4.82;;
75446;SDS011;64024;55.820;37.574;2023-07-13T05:13:34;5.18;;;4.30;;
75446;SDS011;64024;55.820;37.574;2023-07-13T05:16:02;5.53;;;4.47;;
75446;SDS011;64024;55.820;37.574;2023-07-13T05:18:31;5.70;;;5.10;;
75446;SDS011;64024;55.820;37.574;2023-07-13T05:20:57;6.00;;;5.07;;
75446;SDS011;64024;55.820;37.574;2023-07-13T05:23:25;5.20;;;4.72;;
75446;SDS011;64024;55.820;37.574;2023-07-13T05:25:51;6.28;;;5.05;;
75446;SDS011;64024;55.820;37.574;2023-07-13T05:28:17;5.38;;;4.88;;
75446;SDS011;64024;55.820;37.574;2023-07-13T05:30:46;4.55;;;4.15;;
75446;SDS011;64024;55.820;37.574;2023-07-13T05:33:14;4.72;;;4.32;;
75446;SDS011;64024;55.820;37.574;2023-07-13T05:35:39;5.18;;;4.68;;
75446;SDS011;64024;55.820;37.574;2023-07-13T05:38:05;4.50;;;4.10;;
75446;SDS011;64024;55.820;37.574;2023-07-13T05:40:31;5.68;;;4.22;;
75446;SDS011;64024;55.820;37.574;2023-07-13T05:42:57;4.35;;;3.95;;
75446;SDS011;64024;55.820;37.574;2023-07-13T05:45:24;5.53;;;4.85;;
75446;SDS011;64024;55.820;37.574;2023-07-13T05:50:17;3.65;;;3.25;;
75446;SDS011;64024;55.820;37.574;2023-07-13T05:52:43;5.28;;;3.72;;
75446;SDS011;64024;55.820;37.574;2023-07-13T05:55:10;4.25;;;3.63;;
75446;SDS011;64024;55.820;37.574;2023-07-13T05:57:36;4.32;;;3.90;;
75446;SDS011;64024;55.820;37.574;2023-07-13T06:00:02;4.15;;;3.80;;
75446;SDS011;64024;55.820;37.574;2023-07-13T06:02:29;4.78;;;4.28;;
75446;SDS011;64024;55.820;37.574;2023-07-13T06:04:55;5.20;;;4.00;;
75446;SDS011;64024;55.820;37.574;2023-07-13T06:07:21;4.95;;;4.32;;
75446;SDS011;64024;55.820;37.574;2023-07-13T06:09:47;4.60;;;4.10;;
75446;SDS011;64024;55.820;37.574;2023-07-13T06:12:13;5.35;;;4.10;;
75446;SDS011;64024;55.820;37.574;2023-07-13T06:14:39;5.10;;;4.38;;
75446;SDS011;64024;55.820;37.574;2023-07-13T06:17:05;4.72;;;4.25;;
75446;SDS011;64024;55.820;37.574;2023-07-13T06:19:31;7.47;;;5.00;;
75446;SDS011;64024;55.820;37.574;2023-07-13T06:21:57;5.85;;;3.95;;
75446;SDS011;64024;55.820;37.574;2023-07-13T06:24:24;5.95;;;5.10;;
75446;SDS011;64024;55.820;37.574;2023-07-13T06:26:50;5.53;;;4.50;;
75446;SDS011;64024;55.820;37.574;2023-07-13T06:29:16;5.78;;;5.18;;
75446;SDS011;64024;55.820;37.574;2023-07-13T06:31:45;6.35;;;5.38;;
75446;SDS011;64024;55.820;37.574;2023-07-13T06:34:14;6.43;;;5.60;;
75446;SDS011;64024;55.820;37.574;2023-07-13T06:36:40;5.28;;;4.72;;
75446;SDS011;64024;55.820;37.574;2023-07-13T06:39:06;5.60;;;4.50;;
75446;SDS011;64024;55.820;37.574;2023-07-13T06:41:32;5.72;;;4.20;;
75446;SDS011;64024;55.820;37.574;2023-07-13T06:43:59;5.20;;;3.70;;
75446;SDS011;64024;55.820;37.574;2023-07-13T06:46:25;4.47;;;3.08;;
75446;SDS011;64024;55.820;37.574;2023-07-13T06:48:51;3.88;;;3.20;;
75446;SDS011;64024;55.820;37.574;2023-07-13T06:51:17;3.88;;;2.88;;
75446;SDS011;64024;55.820;37.574;2023-07-13T06:53:43;4.68;;;3.08;;
75446;SDS011;64024;55.820;37.574;2023-07-13T06:56:10;5.00;;;3.22;;
75446;SDS011;64024;55.820;37.574;2023-07-13T06:58:36;5.63;;;2.72;;
75446;SDS011;64024;55.820;37.574;2023-07-13T07:01:03;2.95;;;2.40;;
75446;SDS011;64024;55.820;37.574;2023-07-13T07:03:30;3.25;;;2.95;;
75446;SDS011;64024;55.820;37.574;2023-07-13T07:08:27;3.63;;;2.70;;
75446;SDS011;64024;55.820;37.574;2023-07-13T07:10:53;3.13;;;2.10;;
75446;SDS011;64024;55.820;37.574;2023-07-13T07:13:19;5.05;;;3.30;;
75446;SDS011;64024;55.820;37.574;2023-07-13T07:15:46;3.58;;;3.13;;
75446;SDS011;64024;55.820;37.574;2023-07-13T07:18:12;4.40;;;3.08;;
75446;SDS011;64024;55.820;37.574;2023-07-13T07:20:38;3.60;;;2.30;;
75446;SDS011;64024;55.820;37.574;2023-07-13T07:23:04;3.45;;;3.05;;
75446;SDS011;64024;55.820;37.574;2023-07-13T07:25:30;4.07;;;2.67;;
75446;SDS011;64024;55.820;37.574;2023-07-13T07:27:58;3.95;;;2.60;;
75446;SDS011;64024;55.820;37.574;2023-07-13T07:30:25;3.55;;;2.65;;
75446;SDS011;64024;55.820;37.574;2023-07-13T07:32:51;7.97;;;2.72;;
75446;SDS011;64024;55.820;37.574;2023-07-13T07:35:17;2.92;;;2.20;;
75446;SDS011;64024;55.820;37.574;2023-07-13T07:37:43;4.10;;;2.25;;
75446;SDS011;64024;55.820;37.574;2023-07-13T07:40:09;2.90;;;2.10;;
75446;SDS011;64024;55.820;37.574;2023-07-13T07:42:35;3.80;;;2.03;;
75446;SDS011;64024;55.820;37.574;2023-07-13T07:45:01;4.03;;;2.35;;
75446;SDS011;64024;55.820;37.574;2023-07-13T07:47:27;2.78;;;1.88;;
75446;SDS011;64024;55.820;37.574;2023-07-13T07:49:53;3.60;;;1.75;;
75446;SDS011;64024;55.820;37.574;2023-07-13T07:52:19;3.10;;;1.88;;
75446;SDS011;64024;55.820;37.574;2023-07-13T07:54:45;4.63;;;2.00;;
75446;SDS011;64024;55.820;37.574;2023-07-13T07:57:11;4.18;;;2.25;;
75446;SDS011;64024;55.820;37.574;2023-07-13T07:59:38;3.47;;;1.95;;
75446;SDS011;64024;55.820;37.574;2023-07-13T08:02:03;3.58;;;2.40;;
75446;SDS011;64024;55.820;37.574;2023-07-13T08:04:29;3.25;;;2.30;;
75446;SDS011;64024;55.820;37.574;2023-07-13T08:06:55;3.00;;;2.03;;
75446;SDS011;64024;55.820;37.574;2023-07-13T08:09:22;3.63;;;2.38;;
75446;SDS011;64024;55.820;37.574;2023-07-13T08:11:49;2.45;;;1.52;;
75446;SDS011;64024;55.820;37.574;2023-07-13T08:14:17;5.78;;;2.50;;
75446;SDS011;64024;55.820;37.574;2023-07-13T08:16:43;3.45;;;1.80;;
75446;SDS011;64024;55.820;37.574;2023-07-13T08:19:08;2.70;;;1.85;;
75446;SDS011;64024;55.820;37.574;2023-07-13T08:21:36;3.38;;;2.10;;
75446;SDS011;64024;55.820;37.574;2023-07-13T08:24:03;4.03;;;1.88;;
75446;SDS011;64024;55.820;37.574;2023-07-13T08:26:29;4.97;;;2.55;;
75446;SDS011;64024;55.820;37.574;2023-07-13T08:28:56;2.67;;;1.65;;
75446;SDS011;64024;55.820;37.574;2023-07-13T08:31:23;3.42;;;1.65;;
75446;SDS011;64024;55.820;37.574;2023-07-13T08:33:49;3.33;;;1.70;;
75446;SDS011;64024;55.820;37.574;2023-07-13T08:36:15;4.03;;;1.75;;
75446;SDS011;64024;55.820;37.574;2023-07-13T08:38:41;4.78;;;1.65;;
75446;SDS011;64024;55.820;37.574;2023-07-13T08:41:16;2.80;;;1.83;;
75446;SDS011;64024;55.820;37.574;2023-07-13T08:43:47;5.20;;;2.40;;
75446;SDS011;64024;55.820;37.574;2023-07-13T08:46:33;2.53;;;1.70;;
75446;SDS011;64024;55.820;37.574;2023-07-13T08:49:23;3.08;;;2.20;;
75446;SDS011;64024;55.820;37.574;2023-07-13T08:51:58;2.75;;;2.10;;
75446;SDS011;64024;55.820;37.574;2023-07-13T08:57:00;3.35;;;1.98;;
75446;SDS011;64024;55.820;37.574;2023-07-13T08:59:35;2.58;;;1.98;;
75446;SDS011;64024;55.820;37.574;2023-07-13T09:05:04;3.28;;;2.28;;
75446;SDS011;64024;55.820;37.574;2023-07-13T09:10:27;3.53;;;1.92;;
75446;SDS011;64024;55.820;37.574;2023-07-13T09:15:30;3.30;;;1.80;;
75446;SDS011;64024;55.820;37.574;2023-07-13T09:23:16;2.38;;;1.80;;
75446;SDS011;64024;55.820;37.574;2023-07-13T09:25:49;2.63;;;1.70;;
75446;SDS011;64024;55.820;37.574;2023-07-13T09:28:24;3.42;;;1.55;;
75446;SDS011;64024;55.820;37.574;2023-07-13T09:33:45;2.78;;;1.48;;
75446;SDS011;64024;55.820;37.574;2023-07-13T09:36:25;2.25;;;1.48;;
75446;SDS011;64024;55.820;37.574;2023-07-13T09:39:21;3.47;;;2.00;;
75446;SDS011;64024;55.820;37.574;2023-07-13T09:42:03;2.13;;;1.52;;
75446;SDS011;64024;55.820;37.574;2023-07-13T09:44:39;2.15;;;1.42;;
75446;SDS011;64024;55.820;37.574;2023-07-13T09:47:26;2.90;;;1.33;;
75446;SDS011;64024;55.820;37.574;2023-07-13T09:49:59;2.40;;;1.70;;
75446;SDS011;64024;55.820;37.574;2023-07-13T09:55:41;2.42;;;1.65;;
75446;SDS011;64024;55.820;37.574;2023-07-13T09:58:11;2.65;;;1.50;;
75446;SDS011;64024;55.820;37.574;2023-07-13T10:01:01;2.92;;;1.77;;
75446;SDS011;64024;55.820;37.574;2023-07-13T10:03:31;2.00;;;1.70;;
75446;SDS011;64024;55.820;37.574;2023-07-13T10:06:17;4.65;;;1.50;;
75446;SDS011;64024;55.820;37.574;2023-07-13T10:08:45;2.25;;;1.33;;
75446;SDS011;64024;55.820;37.574;2023-07-13T10:14:02;6.40;;;2.05;;
75446;SDS011;64024;55.820;37.574;2023-07-13T10:16:41;4.75;;;2.28;;
75446;SDS011;64024;55.820;37.574;2023-07-13T10:21:50;3.38;;;2.50;;
75446;SDS011;64024;55.820;37.574;2023-07-13T10:24:31;4.15;;;2.38;;
75446;SDS011;64024;55.820;37.574;2023-07-13T10:29:38;3.65;;;2.38;;
75446;SDS011;64024;55.820;37.574;2023-07-13T10:32:10;2.33;;;1.95;;
75446;SDS011;64024;55.820;37.574;2023-07-13T10:34:38;3.35;;;2.22;;
75446;SDS011;64024;55.820;37.574;2023-07-13T10:37:20;3.40;;;2.33;;
75446;SDS011;64024;55.820;37.574;2023-07-13T10:39:53;3.38;;;2.58;;
75446;SDS011;64024;55.820;37.574;2023-07-13T10:42:27;2.67;;;1.90;;
75446;SDS011;64024;55.820;37.574;2023-07-13T10:45:15;3.05;;;2.30;;
75446;SDS011;64024;55.820;37.574;2023-07-13T10:47:44;3.97;;;2.05;;
75446;SDS011;64024;55.820;37.574;2023-07-13T10:50:17;3.80;;;1.80;;
75446;SDS011;64024;55.820;37.574;2023-07-13T10:52:47;3.83;;;2.22;;
75446;SDS011;64024;55.820;37.574;2023-07-13T10:58:35;2.95;;;1.98;;
75446;SDS011;64024;55.820;37.574;2023-07-13T11:03:32;4.45;;;2.13;;
75446;SDS011;64024;55.820;37.574;2023-07-13T11:08:51;2.50;;;1.63;;
75446;SDS011;64024;55.820;37.574;2023-07-13T11:18:45;3.88;;;2.08;;
75446;SDS011;64024;55.820;37.574;2023-07-13T11:21:20;3.88;;;1.98;;
75446;SDS011;64024;55.820;37.574;2023-07-13T11:31:53;2.70;;;1.73;;
75446;SDS011;64024;55.820;37.574;2023-07-13T11:34:33;5.53;;;2.08;;
75446;SDS011;64024;55.820;37.574;2023-07-13T11:37:02;2.78;;;1.73;;
75446;SDS011;64024;55.820;37.574;2023-07-13T11:39:31;2.95;;;2.08;;
75446;SDS011;64024;55.820;37.574;2023-07-13T11:42:05;3.83;;;1.80;;
75446;SDS011;64024;55.820;37.574;2023-07-13T11:44:48;3.53;;;1.88;;
75446;SDS011;64024;55.820;37.574;2023-07-13T11:47:18;3.50;;;1.73;;
75446;SDS011;64024;55.820;37.574;2023-07-13T11:49:51;2.70;;;1.73;;
75446;SDS011;64024;55.820;37.574;2023-07-13T11:52:22;3.40;;;1.85;;
75446;SDS011;64024;55.820;37.574;2023-07-13T11:54:55;3.00;;;1.50;;
75446;SDS011;64024;55.820;37.574;2023-07-13T11:57:29;3.15;;;2.05;;
75446;SDS011;64024;55.820;37.574;2023-07-13T12:00:16;4.18;;;1.95;;
75446;SDS011;64024;55.820;37.574;2023-07-13T12:02:48;2.67;;;1.90;;
75446;SDS011;64024;55.820;37.574;2023-07-13T12:05:19;2.45;;;1.63;;
75446;SDS011;64024;55.820;37.574;2023-07-13T12:07:49;2.78;;;1.83;;
75446;SDS011;64024;55.820;37.574;2023-07-13T12:10:21;2.72;;;1.98;;
75446;SDS011;64024;55.820;37.574;2023-07-13T12:15:38;2.63;;;1.45;;
75446;SDS011;64024;55.820;37.574;2023-07-13T12:18:15;4.38;;;2.10;;
75446;SDS011;64024;55.820;37.574;2023-07-13T12:20:45;3.90;;;1.95;;
75446;SDS011;64024;55.820;37.574;2023-07-13T12:23:21;3.92;;;2.15;;
75446;SDS011;64024;55.820;37.574;2023-07-13T12:25:55;2.72;;;1.77;;
75446;SDS011;64024;55.820;37.574;2023-07-13T12:28:29;2.50;;;2.00;;
75446;SDS011;64024;55.820;37.574;2023-07-13T12:31:02;6.32;;;2.05;;
75446;SDS011;64024;55.820;37.574;2023-07-13T12:33:32;3.10;;;2.42;;
75446;SDS011;64024;55.820;37.574;2023-07-13T12:36:03;3.22;;;2.08;;
75446;SDS011;64024;55.820;37.574;2023-07-13T12:38:32;2.55;;;1.98;;
75446;SDS011;64024;55.820;37.574;2023-07-13T12:40:58;3.80;;;2.47;;
75446;SDS011;64024;55.820;37.574;2023-07-13T12:43:27;3.03;;;1.77;;
75446;SDS011;64024;55.820;37.574;2023-07-13T12:45:59;5.70;;;2.30;;
75446;SDS011;64024;55.820;37.574;2023-07-13T12:48:27;2.72;;;1.95;;
75446;SDS011;64024;55.820;37.574;2023-07-13T12:53:22;3.13;;;2.10;;
75446;SDS011;64024;55.820;37.574;2023-07-13T12:55:54;2.13;;;1.73;;
75446;SDS011;64024;55.820;37.574;2023-07-13T12:58:30;3.03;;;2.25;;
75446;SDS011;64024;55.820;37.574;2023-07-13T13:01:02;4.57;;;2.05;;
75446;SDS011;64024;55.820;37.574;2023-07-13T13:08:44;3.83;;;1.92;;
75446;SDS011;64024;55.820;37.574;2023-07-13T13:11:14;2.88;;;1.88;;
75446;SDS011;64024;55.820;37.574;2023-07-13T13:13:42;4.88;;;1.98;;
75446;SDS011;64024;55.820;37.574;2023-07-13T13:18:50;4.72;;;2.50;;
75446;SDS011;64024;55.820;37.574;2023-07-13T13:21:22;3.40;;;2.53;;
75446;SDS011;64024;55.820;37.574;2023-07-13T13:23:49;2.33;;;1.77;;
75446;SDS011;64024;55.820;37.574;2023-07-13T13:26:16;3.15;;;2.20;;
75446;SDS011;64024;55.820;37.574;2023-07-13T13:28:44;3.35;;;1.80;;
75446;SDS011;64024;55.820;37.574;2023-07-13T13:31:13;2.53;;;1.80;;
75446;SDS011;64024;55.820;37.574;2023-07-13T13:33:40;4.40;;;1.60;;
75446;SDS011;64024;55.820;37.574;2023-07-13T13:36:20;2.58;;;1.63;;
75446;SDS011;64024;55.820;37.574;2023-07-13T13:38:49;3.42;;;2.20;;
75446;SDS011;64024;55.820;37.574;2023-07-13T13:41:16;4.00;;;1.90;;
75446;SDS011;64024;55.820;37.574;2023-07-13T13:43:43;3.08;;;1.98;;
75446;SDS011;64024;55.820;37.574;2023-07-13T13:48:44;3.60;;;1.85;;
75446;SDS011;64024;55.820;37.574;2023-07-13T13:51:15;2.92;;;1.83;;
75446;SDS011;64024;55.820;37.574;2023-07-13T13:53:48;3.72;;;2.00;;
75446;SDS011;64024;55.820;37.574;2023-07-13T13:56:15;1.92;;;1.30;;
75446;SDS011;64024;55.820;37.574;2023-07-13T13:58:43;2.08;;;1.60;;
75446;SDS011;64024;55.820;37.574;2023-07-13T14:01:13;3.35;;;1.60;;
75446;SDS011;64024;55.820;37.574;2023-07-13T14:03:45;2.53;;;1.52;;
75446;SDS011;64024;55.820;37.574;2023-07-13T14:06:19;3.08;;;1.92;;
75446;SDS011;64024;55.820;37.574;2023-07-13T14:08:47;2.00;;;1.40;;
75446;SDS011;64024;55.820;37.574;2023-07-13T14:13:44;4.43;;;2.13;;
75446;SDS011;64024;55.820;37.574;2023-07-13T14:16:15;4.13;;;1.48;;
75446;SDS011;64024;55.820;37.574;2023-07-13T14:18:45;2.40;;;1.67;;
75446;SDS011;64024;55.820;37.574;2023-07-13T14:21:20;2.38;;;1.73;;
75446;SDS011;64024;55.820;37.574;2023-07-13T14:23:48;2.58;;;1.98;;
75446;SDS011;64024;55.820;37.574;2023-07-13T14:26:20;2.67;;;1.80;;
75446;SDS011;64024;55.820;37.574;2023-07-13T14:28:56;3.95;;;1.90;;
75446;SDS011;64024;55.820;37.574;2023-07-13T14:31:25;2.63;;;1.77;;
75446;SDS011;64024;55.820;37.574;2023-07-13T14:33:54;3.03;;;1.52;;
75446;SDS011;64024;55.820;37.574;2023-07-13T14:36:25;5.93;;;1.77;;
75446;SDS011;64024;55.820;37.574;2023-07-13T14:38:55;3.95;;;1.70;;
75446;SDS011;64024;55.820;37.574;2023-07-13T14:41:23;2.80;;;1.58;;
75446;SDS011;64024;55.820;37.574;2023-07-13T14:43:52;3.03;;;1.70;;
75446;SDS011;64024;55.820;37.574;2023-07-13T14:46:30;3.70;;;1.58;;
75446;SDS011;64024;55.820;37.574;2023-07-13T14:49:06;2.92;;;1.60;;
75446;SDS011;64024;55.820;37.574;2023-07-13T14:51:43;2.63;;;1.63;;
75446;SDS011;64024;55.820;37.574;2023-07-13T14:54:10;3.25;;;1.77;;
75446;SDS011;64024;55.820;37.574;2023-07-13T14:56:38;2.53;;;1.50;;
75446;SDS011;64024;55.820;37.574;2023-07-13T14:59:04;2.45;;;1.77;;
75446;SDS011;64024;55.820;37.574;2023-07-13T15:01:33;2.58;;;1.90;;
75446;SDS011;64024;55.820;37.574;2023-07-13T15:04:02;2.97;;;1.90;;
75446;SDS011;64024;55.820;37.574;2023-07-13T15:06:35;2.45;;;1.60;;
75446;SDS011;64024;55.820;37.574;2023-07-13T15:09:20;2.50;;;1.65;;
75446;SDS011;64024;55.820;37.574;2023-07-13T15:14:14;3.88;;;1.45;;
75446;SDS011;64024;55.820;37.574;2023-07-13T15:16:42;3.00;;;1.83;;
75446;SDS011;64024;55.820;37.574;2023-07-13T15:19:09;3.80;;;1.70;;
75446;SDS011;64024;55.820;37.574;2023-07-13T15:21:36;4.47;;;1.60;;
75446;SDS011;64024;55.820;37.574;2023-07-13T15:24:03;2.60;;;1.60;;
75446;SDS011;64024;55.820;37.574;2023-07-13T15:26:33;2.72;;;1.75;;
75446;SDS011;64024;55.820;37.574;2023-07-13T15:29:00;4.53;;;2.03;;
75446;SDS011;64024;55.820;37.574;2023-07-13T15:31:28;6.07;;;3.15;;
75446;SDS011;64024;55.820;37.574;2023-07-13T15:33:55;16.23;;;6.40;;
75446;SDS011;64024;55.820;37.574;2023-07-13T15:36:22;21.23;;;6.40;;
75446;SDS011;64024;55.820;37.574;2023-07-13T15:38:54;22.52;;;6.63;;
75446;SDS011;64024;55.820;37.574;2023-07-13T15:41:25;17.83;;;6.47;;
75446;SDS011;64024;55.820;37.574;2023-07-13T15:43:54;26.85;;;8.23;;
75446;SDS011;64024;55.820;37.574;2023-07-13T15:46:25;19.05;;;7.20;;
75446;SDS011;64024;55.820;37.574;2023-07-13T15:48:53;21.58;;;6.78;;
75446;SDS011;64024;55.820;37.574;2023-07-13T15:51:28;25.92;;;6.75;;
75446;SDS011;64024;55.820;37.574;2023-07-13T15:54:01;16.95;;;5.95;;
75446;SDS011;64024;55.820;37.574;2023-07-13T15:56:36;17.38;;;6.25;;
75446;SDS011;64024;55.820;37.574;2023-07-13T15:59:05;20.23;;;6.53;;
75446;SDS011;64024;55.820;37.574;2023-07-13T16:01:34;13.63;;;5.82;;
75446;SDS011;64024;55.820;37.574;2023-07-13T16:04:01;16.23;;;5.28;;
75446;SDS011;64024;55.820;37.574;2023-07-13T16:06:34;15.57;;;5.78;;
75446;SDS011;64024;55.820;37.574;2023-07-13T16:09:03;14.65;;;5.45;;
75446;SDS011;64024;55.820;37.574;2023-07-13T16:11:38;16.50;;;5.20;;
75446;SDS011;64024;55.820;37.574;2023-07-13T16:14:06;13.80;;;5.05;;